Aeroporto :
LOGIN :

Iscrizione | Disclaimer

   EN    FR    IT 

 










Sommario :    VFR   VFR Marginale   IFR   IFR Intensivo   IFR Molto Intensivo
Visibilità : 
Base nubi : 
>= 8 km
>= 3000ft
5 / 8 km
1000 / 3000 ft
1500m / 5 km
500 / 1000 ft
800 / 1500m
200 / 500 ft
< 800m
< 200 ft
Simboli :   Temporali  Nebbia  Neve Forte  Precipitazioni Forti  Vento > 20 kt
SIGMETs :   Varie  Temporali  Ghiacco  Turbolenza  Onda orograficha  Ceneri Vulcaniche






- Altitudine del aeroporto : 1521 ft
- Codice IATA : NCY


LFLP - Annecy

ULTIMO METAR :
  • 142000Z AUTO 21004KT 180V260 9999 -RA BKN060 OVC072 07/06 Q1011 NOSIG

METARs OBSOLETI :
  • 141930Z AUTO 22003KT 130V250 9999 BKN056 BKN066 BKN094 08/06 Q1011 NOSIG
  • 141900Z AUTO 15005KT 110V220 9999 -RA OVC058 08/06 Q1011 NOSIG
  • 141830Z AUTO 14009KT 110V170 9999 SCT054 OVC064 09/06 Q1011 NOSIG
  • 141800Z AUTO 15006KT 120V180 9999 BKN058 OVC070 08/06 Q1011 NOSIG
  • 141730Z AUTO 14008KT 9999 SCT046 BKN056 OVC072 08/06 Q1011 NOSIG

TAF AMD TAF LFLP
Valido dal 14 a 15 ore il 15 a 15 ore UTC


141506Z 1415/1515 21006KT 9999 FEW025 BKN045
TEMPO 1415/1420 -RA
BECMG 1510/1514 CAVOK



MetMap, La meteo Aeronautica in un colpo d'occhio ! - Copyright ORBIFLY Dicembre 2007 - Disclaimer

ORBIFLY MET'MAP TEAM :

Programmazione e sviluppo : Alexandra Zaïnal
Concezione : Baudouin d'Aumeries
Aiuto per la programmazione : Marc-Olivier Méhu
Supporto tecnico e logistico : Manuel Goepfert
Aiuto per la traduzione : Arnaldo La Scala

Contatto : metmap@orbifly.com




FONTI E CREDITI :

   NOAA